KBHM/BHM METAR and TAF weather

Enter ICAO airport designator
Station Type Date Time Source
KBHM METAR 2022/01/26 13:53 UTC NOAA

KBHM 261353Z 01009KT 10SM CLR M02/M08 A3037 RMK AO2 SLP288 T10171083


Station Type Date Time Source
KBHM Decoded METAR 2022/01/26 13:53 UTC NOAA

BIRMINGHAM INT'L AIRPORT, AL, United States (KBHM) 33-34N 086-45W 197M
Jan 26, 2022 - 08:53 AM EST / 2022.01.26 1353 UTC
Wind: from the N (010 degrees) at 10 MPH (9 KT):0
Visibility: 10 mile(s):0
Sky conditions: clear
Temperature: 28.9 F (-1.7 C)
Windchill: 19 F (-7 C):1
Dew Point: 17.1 F (-8.3 C)
Relative Humidity: 60%
Pressure (altimeter): 30.37 in. Hg (1028 hPa)
ob: KBHM 261353Z 01009KT 10SM CLR M02/M08 A3037 RMK AO2 SLP288 T10171083
cycle: 14

Station Type Date Time Source
KBHM TAF 2022/01/26 12:30 UTC NOAA

TAF KBHM 261128Z 2612/2712 36008KT P6SM SKC
FM261600 02010KT P6SM SKC
FM262300 01006KT P6SM FEW250

Example: see airport list